sensor_id;sensor_type;location;lat;lon;timestamp;P1;durP1;ratioP1;P2;durP2;ratioP2
19780;SDS011;10050;55.492;13.506;2023-02-04T00:01:46;1.13;;;0.80;;
19780;SDS011;10050;55.492;13.506;2023-02-04T00:04:12;1.03;;;0.80;;
19780;SDS011;10050;55.492;13.506;2023-02-04T00:06:38;0.60;;;0.60;;
19780;SDS011;10050;55.492;13.506;2023-02-04T00:09:04;0.70;;;0.70;;
19780;SDS011;10050;55.492;13.506;2023-02-04T00:11:30;0.80;;;0.80;;
19780;SDS011;10050;55.492;13.506;2023-02-04T00:13:56;1.67;;;0.90;;
19780;SDS011;10050;55.492;13.506;2023-02-04T00:16:22;2.00;;;1.00;;
19780;SDS011;10050;55.492;13.506;2023-02-04T00:18:47;2.00;;;0.70;;
19780;SDS011;10050;55.492;13.506;2023-02-04T00:21:13;0.60;;;0.60;;
19780;SDS011;10050;55.492;13.506;2023-02-04T00:23:38;1.40;;;0.70;;
19780;SDS011;10050;55.492;13.506;2023-02-04T00:26:04;1.13;;;0.60;;
19780;SDS011;10050;55.492;13.506;2023-02-04T00:28:30;0.60;;;0.60;;
19780;SDS011;10050;55.492;13.506;2023-02-04T00:30:56;2.47;;;0.90;;
19780;SDS011;10050;55.492;13.506;2023-02-04T00:33:21;1.60;;;0.90;;
19780;SDS011;10050;55.492;13.506;2023-02-04T00:35:47;0.60;;;0.60;;
19780;SDS011;10050;55.492;13.506;2023-02-04T00:38:12;0.60;;;0.50;;
19780;SDS011;10050;55.492;13.506;2023-02-04T00:40:38;2.27;;;0.60;;
19780;SDS011;10050;55.492;13.506;2023-02-04T00:43:04;0.77;;;0.77;;
19780;SDS011;10050;55.492;13.506;2023-02-04T00:45:29;1.00;;;0.90;;
19780;SDS011;10050;55.492;13.506;2023-02-04T00:47:55;1.33;;;0.80;;
19780;SDS011;10050;55.492;13.506;2023-02-04T00:50:21;0.77;;;0.77;;
19780;SDS011;10050;55.492;13.506;2023-02-04T00:52:47;0.73;;;0.73;;
19780;SDS011;10050;55.492;13.506;2023-02-04T00:55:13;0.47;;;0.47;;
19780;SDS011;10050;55.492;13.506;2023-02-04T00:57:41;2.10;;;0.57;;
19780;SDS011;10050;55.492;13.506;2023-02-04T01:00:08;0.93;;;0.67;;
19780;SDS011;10050;55.492;13.506;2023-02-04T01:02:34;0.90;;;0.70;;
19780;SDS011;10050;55.492;13.506;2023-02-04T01:05:00;1.23;;;0.70;;
19780;SDS011;10050;55.492;13.506;2023-02-04T01:07:26;0.57;;;0.57;;
19780;SDS011;10050;55.492;13.506;2023-02-04T01:09:51;0.70;;;0.70;;
19780;SDS011;10050;55.492;13.506;2023-02-04T01:12:17;0.50;;;0.50;;
19780;SDS011;10050;55.492;13.506;2023-02-04T01:14:43;0.70;;;0.70;;
19780;SDS011;10050;55.492;13.506;2023-02-04T01:17:08;0.60;;;0.60;;
19780;SDS011;10050;55.492;13.506;2023-02-04T01:19:34;0.63;;;0.63;;
19780;SDS011;10050;55.492;13.506;2023-02-04T01:22:00;1.63;;;0.80;;
19780;SDS011;10050;55.492;13.506;2023-02-04T01:24:25;1.13;;;0.83;;
19780;SDS011;10050;55.492;13.506;2023-02-04T01:26:51;0.97;;;0.70;;
19780;SDS011;10050;55.492;13.506;2023-02-04T01:29:16;0.87;;;0.77;;
19780;SDS011;10050;55.492;13.506;2023-02-04T01:31:42;0.70;;;0.70;;
19780;SDS011;10050;55.492;13.506;2023-02-04T01:34:08;0.87;;;0.70;;
19780;SDS011;10050;55.492;13.506;2023-02-04T01:36:33;1.97;;;0.90;;
19780;SDS011;10050;55.492;13.506;2023-02-04T01:38:59;1.07;;;0.90;;
19780;SDS011;10050;55.492;13.506;2023-02-04T01:41:25;0.87;;;0.60;;
19780;SDS011;10050;55.492;13.506;2023-02-04T01:43:51;1.93;;;0.53;;
19780;SDS011;10050;55.492;13.506;2023-02-04T01:46:17;0.70;;;0.70;;
19780;SDS011;10050;55.492;13.506;2023-02-04T01:48:43;0.80;;;0.80;;
19780;SDS011;10050;55.492;13.506;2023-02-04T01:51:12;0.80;;;0.80;;
19780;SDS011;10050;55.492;13.506;2023-02-04T01:53:41;0.73;;;0.73;;
19780;SDS011;10050;55.492;13.506;2023-02-04T01:56:18;0.60;;;0.60;;
19780;SDS011;10050;55.492;13.506;2023-02-04T01:58:46;0.80;;;0.80;;
19780;SDS011;10050;55.492;13.506;2023-02-04T02:01:13;0.77;;;0.77;;
19780;SDS011;10050;55.492;13.506;2023-02-04T02:03:56;0.70;;;0.70;;
19780;SDS011;10050;55.492;13.506;2023-02-04T02:06:22;1.23;;;0.70;;
19780;SDS011;10050;55.492;13.506;2023-02-04T02:08:49;0.83;;;0.83;;
19780;SDS011;10050;55.492;13.506;2023-02-04T02:11:14;0.80;;;0.80;;
19780;SDS011;10050;55.492;13.506;2023-02-04T02:13:40;0.93;;;0.93;;
19780;SDS011;10050;55.492;13.506;2023-02-04T02:16:06;0.87;;;0.87;;
19780;SDS011;10050;55.492;13.506;2023-02-04T02:18:32;0.70;;;0.70;;
19780;SDS011;10050;55.492;13.506;2023-02-04T02:20:58;1.27;;;0.80;;
19780;SDS011;10050;55.492;13.506;2023-02-04T02:26:17;0.60;;;0.60;;
19780;SDS011;10050;55.492;13.506;2023-02-04T02:28:44;0.80;;;0.80;;
19780;SDS011;10050;55.492;13.506;2023-02-04T02:31:12;1.00;;;1.00;;
19780;SDS011;10050;55.492;13.506;2023-02-04T02:33:42;0.70;;;0.70;;
19780;SDS011;10050;55.492;13.506;2023-02-04T02:36:08;0.90;;;0.90;;
19780;SDS011;10050;55.492;13.506;2023-02-04T02:38:34;0.80;;;0.80;;
19780;SDS011;10050;55.492;13.506;2023-02-04T02:41:00;3.30;;;1.10;;
19780;SDS011;10050;55.492;13.506;2023-02-04T02:43:26;0.63;;;0.63;;
19780;SDS011;10050;55.492;13.506;2023-02-04T02:45:53;1.57;;;0.90;;
19780;SDS011;10050;55.492;13.506;2023-02-04T02:48:21;0.83;;;0.83;;
19780;SDS011;10050;55.492;13.506;2023-02-04T02:50:47;0.80;;;0.80;;
19780;SDS011;10050;55.492;13.506;2023-02-04T02:53:14;0.70;;;0.70;;
19780;SDS011;10050;55.492;13.506;2023-02-04T02:55:41;0.80;;;0.80;;
19780;SDS011;10050;55.492;13.506;2023-02-04T02:58:50;1.53;;;0.90;;
19780;SDS011;10050;55.492;13.506;2023-02-04T03:01:01;0.83;;;0.83;;
19780;SDS011;10050;55.492;13.506;2023-02-04T03:03:30;0.93;;;0.93;;
19780;SDS011;10050;55.492;13.506;2023-02-04T03:06:01;0.90;;;0.90;;
19780;SDS011;10050;55.492;13.506;2023-02-04T03:08:30;1.03;;;1.03;;
19780;SDS011;10050;55.492;13.506;2023-02-04T03:10:56;0.93;;;0.87;;
19780;SDS011;10050;55.492;13.506;2023-02-04T03:13:22;1.30;;;0.80;;
19780;SDS011;10050;55.492;13.506;2023-02-04T03:15:48;0.90;;;0.90;;
19780;SDS011;10050;55.492;13.506;2023-02-04T03:18:14;1.93;;;0.80;;
19780;SDS011;10050;55.492;13.506;2023-02-04T03:20:42;0.80;;;0.80;;
19780;SDS011;10050;55.492;13.506;2023-02-04T03:23:08;0.80;;;0.80;;
19780;SDS011;10050;55.492;13.506;2023-02-04T03:25:34;2.50;;;0.90;;
19780;SDS011;10050;55.492;13.506;2023-02-04T03:28:00;0.90;;;0.90;;
19780;SDS011;10050;55.492;13.506;2023-02-04T03:30:26;0.70;;;0.70;;
19780;SDS011;10050;55.492;13.506;2023-02-04T03:32:52;1.17;;;0.90;;
19780;SDS011;10050;55.492;13.506;2023-02-04T03:35:18;0.83;;;0.83;;
19780;SDS011;10050;55.492;13.506;2023-02-04T03:37:44;1.10;;;0.80;;
19780;SDS011;10050;55.492;13.506;2023-02-04T03:40:11;1.67;;;0.87;;
19780;SDS011;10050;55.492;13.506;2023-02-04T03:42:37;1.40;;;0.70;;
19780;SDS011;10050;55.492;13.506;2023-02-04T03:45:03;1.23;;;0.80;;
19780;SDS011;10050;55.492;13.506;2023-02-04T03:47:29;3.00;;;0.93;;
19780;SDS011;10050;55.492;13.506;2023-02-04T03:49:55;1.07;;;1.00;;
19780;SDS011;10050;55.492;13.506;2023-02-04T03:52:22;1.50;;;0.80;;
19780;SDS011;10050;55.492;13.506;2023-02-04T03:54:47;1.10;;;0.90;;
19780;SDS011;10050;55.492;13.506;2023-02-04T03:57:13;1.33;;;1.13;;
19780;SDS011;10050;55.492;13.506;2023-02-04T03:59:40;1.00;;;0.90;;
19780;SDS011;10050;55.492;13.506;2023-02-04T04:02:06;1.57;;;1.10;;
19780;SDS011;10050;55.492;13.506;2023-02-04T04:04:32;1.40;;;1.30;;
19780;SDS011;10050;55.492;13.506;2023-02-04T04:06:57;1.07;;;1.07;;
19780;SDS011;10050;55.492;13.506;2023-02-04T04:09:23;1.20;;;1.10;;
19780;SDS011;10050;55.492;13.506;2023-02-04T04:11:49;2.37;;;1.23;;
19780;SDS011;10050;55.492;13.506;2023-02-04T04:14:14;1.37;;;1.27;;
19780;SDS011;10050;55.492;13.506;2023-02-04T04:16:40;1.20;;;1.13;;
19780;SDS011;10050;55.492;13.506;2023-02-04T04:19:06;1.03;;;1.03;;
19780;SDS011;10050;55.492;13.506;2023-02-04T04:21:31;1.63;;;1.33;;
19780;SDS011;10050;55.492;13.506;2023-02-04T04:23:57;1.10;;;1.10;;
19780;SDS011;10050;55.492;13.506;2023-02-04T04:26:22;1.47;;;1.17;;
19780;SDS011;10050;55.492;13.506;2023-02-04T04:28:48;1.27;;;1.27;;
19780;SDS011;10050;55.492;13.506;2023-02-04T04:31:14;1.47;;;1.37;;
19780;SDS011;10050;55.492;13.506;2023-02-04T04:33:39;1.60;;;1.50;;
19780;SDS011;10050;55.492;13.506;2023-02-04T04:36:06;2.80;;;1.17;;
19780;SDS011;10050;55.492;13.506;2023-02-04T04:38:32;2.10;;;1.43;;
19780;SDS011;10050;55.492;13.506;2023-02-04T04:40:57;2.60;;;1.50;;
19780;SDS011;10050;55.492;13.506;2023-02-04T04:43:23;1.60;;;1.50;;
19780;SDS011;10050;55.492;13.506;2023-02-04T04:45:49;1.60;;;1.50;;
19780;SDS011;10050;55.492;13.506;2023-02-04T04:48:14;1.60;;;1.50;;
19780;SDS011;10050;55.492;13.506;2023-02-04T04:50:40;1.70;;;1.60;;
19780;SDS011;10050;55.492;13.506;2023-02-04T04:53:06;2.10;;;1.73;;
19780;SDS011;10050;55.492;13.506;2023-02-04T04:55:35;1.47;;;1.23;;
19780;SDS011;10050;55.492;13.506;2023-02-04T04:58:02;1.80;;;1.60;;
19780;SDS011;10050;55.492;13.506;2023-02-04T05:00:28;2.23;;;1.40;;
19780;SDS011;10050;55.492;13.506;2023-02-04T05:02:54;1.93;;;1.70;;
19780;SDS011;10050;55.492;13.506;2023-02-04T05:05:19;1.43;;;1.33;;
19780;SDS011;10050;55.492;13.506;2023-02-04T05:07:45;1.87;;;1.50;;
19780;SDS011;10050;55.492;13.506;2023-02-04T05:10:10;1.60;;;1.40;;
19780;SDS011;10050;55.492;13.506;2023-02-04T05:12:36;1.50;;;1.37;;
19780;SDS011;10050;55.492;13.506;2023-02-04T05:15:02;2.47;;;1.50;;
19780;SDS011;10050;55.492;13.506;2023-02-04T05:17:29;1.20;;;1.10;;
19780;SDS011;10050;55.492;13.506;2023-02-04T05:19:54;1.93;;;1.70;;
19780;SDS011;10050;55.492;13.506;2023-02-04T05:22:20;1.40;;;1.30;;
19780;SDS011;10050;55.492;13.506;2023-02-04T05:24:46;1.43;;;1.33;;
19780;SDS011;10050;55.492;13.506;2023-02-04T05:27:11;1.33;;;1.33;;
19780;SDS011;10050;55.492;13.506;2023-02-04T05:29:37;4.13;;;1.80;;
19780;SDS011;10050;55.492;13.506;2023-02-04T05:32:02;2.03;;;1.60;;
19780;SDS011;10050;55.492;13.506;2023-02-04T05:34:28;1.43;;;1.33;;
19780;SDS011;10050;55.492;13.506;2023-02-04T05:36:54;2.73;;;1.37;;
19780;SDS011;10050;55.492;13.506;2023-02-04T05:39:19;1.50;;;1.40;;
19780;SDS011;10050;55.492;13.506;2023-02-04T05:41:46;1.40;;;1.27;;
19780;SDS011;10050;55.492;13.506;2023-02-04T05:44:11;1.67;;;1.57;;
19780;SDS011;10050;55.492;13.506;2023-02-04T05:46:37;2.33;;;1.40;;
19780;SDS011;10050;55.492;13.506;2023-02-04T05:49:03;1.90;;;1.60;;
19780;SDS011;10050;55.492;13.506;2023-02-04T05:51:29;4.40;;;1.60;;
19780;SDS011;10050;55.492;13.506;2023-02-04T05:53:55;3.27;;;1.53;;
19780;SDS011;10050;55.492;13.506;2023-02-04T05:56:21;1.87;;;1.77;;
19780;SDS011;10050;55.492;13.506;2023-02-04T05:58:46;1.77;;;1.40;;
19780;SDS011;10050;55.492;13.506;2023-02-04T06:01:12;1.70;;;1.50;;
19780;SDS011;10050;55.492;13.506;2023-02-04T06:03:37;1.77;;;1.43;;
19780;SDS011;10050;55.492;13.506;2023-02-04T06:06:03;1.60;;;1.50;;
19780;SDS011;10050;55.492;13.506;2023-02-04T06:08:29;1.83;;;1.60;;
19780;SDS011;10050;55.492;13.506;2023-02-04T06:10:54;1.63;;;1.53;;
19780;SDS011;10050;55.492;13.506;2023-02-04T06:13:20;1.27;;;1.10;;
19780;SDS011;10050;55.492;13.506;2023-02-04T06:15:46;3.73;;;1.77;;
19780;SDS011;10050;55.492;13.506;2023-02-04T06:18:11;3.13;;;1.57;;
19780;SDS011;10050;55.492;13.506;2023-02-04T06:20:38;3.27;;;1.30;;
19780;SDS011;10050;55.492;13.506;2023-02-04T06:23:03;1.53;;;1.43;;
19780;SDS011;10050;55.492;13.506;2023-02-04T06:25:29;2.20;;;1.40;;
19780;SDS011;10050;55.492;13.506;2023-02-04T06:27:54;1.50;;;1.40;;
19780;SDS011;10050;55.492;13.506;2023-02-04T06:30:20;1.77;;;1.50;;
19780;SDS011;10050;55.492;13.506;2023-02-04T06:32:46;1.63;;;1.47;;
19780;SDS011;10050;55.492;13.506;2023-02-04T06:35:12;1.70;;;1.50;;
19780;SDS011;10050;55.492;13.506;2023-02-04T06:37:39;1.60;;;1.50;;
19780;SDS011;10050;55.492;13.506;2023-02-04T06:40:05;4.30;;;1.33;;
19780;SDS011;10050;55.492;13.506;2023-02-04T06:42:32;1.40;;;1.30;;
19780;SDS011;10050;55.492;13.506;2023-02-04T06:44:58;2.10;;;1.40;;
19780;SDS011;10050;55.492;13.506;2023-02-04T06:47:24;1.60;;;1.50;;
19780;SDS011;10050;55.492;13.506;2023-02-04T06:49:49;1.73;;;1.63;;
19780;SDS011;10050;55.492;13.506;2023-02-04T06:52:15;2.90;;;1.77;;
19780;SDS011;10050;55.492;13.506;2023-02-04T06:54:41;1.40;;;1.30;;
19780;SDS011;10050;55.492;13.506;2023-02-04T06:57:06;1.27;;;1.20;;
19780;SDS011;10050;55.492;13.506;2023-02-04T06:59:33;2.40;;;2.13;;
19780;SDS011;10050;55.492;13.506;2023-02-04T07:01:59;7.17;;;4.87;;
19780;SDS011;10050;55.492;13.506;2023-02-04T07:04:25;6.03;;;4.10;;
19780;SDS011;10050;55.492;13.506;2023-02-04T07:06:51;1.93;;;1.80;;
19780;SDS011;10050;55.492;13.506;2023-02-04T07:09:16;2.63;;;1.93;;
19780;SDS011;10050;55.492;13.506;2023-02-04T07:11:42;2.30;;;2.10;;
19780;SDS011;10050;55.492;13.506;2023-02-04T07:14:08;2.30;;;2.10;;
19780;SDS011;10050;55.492;13.506;2023-02-04T07:16:34;3.20;;;2.00;;
19780;SDS011;10050;55.492;13.506;2023-02-04T07:19:00;1.60;;;1.50;;
19780;SDS011;10050;55.492;13.506;2023-02-04T07:21:26;2.73;;;1.70;;
19780;SDS011;10050;55.492;13.506;2023-02-04T07:23:52;1.60;;;1.40;;
19780;SDS011;10050;55.492;13.506;2023-02-04T07:26:17;1.70;;;1.60;;
19780;SDS011;10050;55.492;13.506;2023-02-04T07:28:43;6.67;;;1.97;;
19780;SDS011;10050;55.492;13.506;2023-02-04T07:31:09;4.90;;;1.83;;
19780;SDS011;10050;55.492;13.506;2023-02-04T07:33:35;1.90;;;1.70;;
19780;SDS011;10050;55.492;13.506;2023-02-04T07:36:00;1.90;;;1.80;;
19780;SDS011;10050;55.492;13.506;2023-02-04T07:38:26;1.80;;;1.70;;
19780;SDS011;10050;55.492;13.506;2023-02-04T07:40:52;2.07;;;1.97;;
19780;SDS011;10050;55.492;13.506;2023-02-04T07:43:17;4.37;;;1.60;;
19780;SDS011;10050;55.492;13.506;2023-02-04T07:45:43;2.27;;;1.20;;
19780;SDS011;10050;55.492;13.506;2023-02-04T07:48:09;2.27;;;1.17;;
19780;SDS011;10050;55.492;13.506;2023-02-04T07:50:35;1.60;;;1.00;;
19780;SDS011;10050;55.492;13.506;2023-02-04T07:53:00;1.03;;;0.97;;
19780;SDS011;10050;55.492;13.506;2023-02-04T07:55:26;3.00;;;1.30;;
19780;SDS011;10050;55.492;13.506;2023-02-04T07:57:52;1.83;;;1.30;;
19780;SDS011;10050;55.492;13.506;2023-02-04T08:00:18;1.00;;;1.00;;
19780;SDS011;10050;55.492;13.506;2023-02-04T08:02:44;1.07;;;0.90;;
19780;SDS011;10050;55.492;13.506;2023-02-04T08:05:10;1.20;;;1.10;;
19780;SDS011;10050;55.492;13.506;2023-02-04T08:07:37;0.90;;;0.90;;
19780;SDS011;10050;55.492;13.506;2023-02-04T08:10:06;1.17;;;1.03;;
19780;SDS011;10050;55.492;13.506;2023-02-04T08:12:32;0.80;;;0.80;;
19780;SDS011;10050;55.492;13.506;2023-02-04T08:14:58;1.70;;;1.10;;
19780;SDS011;10050;55.492;13.506;2023-02-04T08:17:25;0.90;;;0.90;;
19780;SDS011;10050;55.492;13.506;2023-02-04T08:19:51;2.40;;;1.43;;
19780;SDS011;10050;55.492;13.506;2023-02-04T08:22:16;3.47;;;3.10;;
19780;SDS011;10050;55.492;13.506;2023-02-04T08:24:42;2.70;;;2.20;;
19780;SDS011;10050;55.492;13.506;2023-02-04T08:27:08;3.70;;;3.40;;
19780;SDS011;10050;55.492;13.506;2023-02-04T08:29:33;1.53;;;1.40;;
19780;SDS011;10050;55.492;13.506;2023-02-04T08:31:59;2.20;;;1.50;;
19780;SDS011;10050;55.492;13.506;2023-02-04T08:34:25;1.70;;;1.30;;
19780;SDS011;10050;55.492;13.506;2023-02-04T08:36:51;1.40;;;1.30;;
19780;SDS011;10050;55.492;13.506;2023-02-04T08:39:16;0.70;;;0.70;;
19780;SDS011;10050;55.492;13.506;2023-02-04T08:41:42;0.97;;;0.90;;
19780;SDS011;10050;55.492;13.506;2023-02-04T08:44:07;0.73;;;0.73;;
19780;SDS011;10050;55.492;13.506;2023-02-04T08:46:33;0.93;;;0.93;;
19780;SDS011;10050;55.492;13.506;2023-02-04T08:48:59;0.90;;;0.90;;
19780;SDS011;10050;55.492;13.506;2023-02-04T08:51:24;1.67;;;1.10;;
19780;SDS011;10050;55.492;13.506;2023-02-04T08:53:50;0.70;;;0.70;;
19780;SDS011;10050;55.492;13.506;2023-02-04T08:56:15;0.80;;;0.80;;
19780;SDS011;10050;55.492;13.506;2023-02-04T08:58:44;0.90;;;0.70;;
19780;SDS011;10050;55.492;13.506;2023-02-04T09:01:10;0.90;;;0.90;;
19780;SDS011;10050;55.492;13.506;2023-02-04T09:03:36;1.33;;;0.90;;
19780;SDS011;10050;55.492;13.506;2023-02-04T09:06:03;0.80;;;0.80;;
19780;SDS011;10050;55.492;13.506;2023-02-04T09:08:29;1.40;;;1.00;;
19780;SDS011;10050;55.492;13.506;2023-02-04T09:10:55;0.50;;;0.50;;
19780;SDS011;10050;55.492;13.506;2023-02-04T09:13:20;1.03;;;0.83;;
19780;SDS011;10050;55.492;13.506;2023-02-04T09:15:46;0.70;;;0.70;;
19780;SDS011;10050;55.492;13.506;2023-02-04T09:18:11;0.83;;;0.83;;
19780;SDS011;10050;55.492;13.506;2023-02-04T09:20:44;1.40;;;0.50;;
19780;SDS011;10050;55.492;13.506;2023-02-04T09:23:11;1.37;;;0.70;;
19780;SDS011;10050;55.492;13.506;2023-02-04T09:25:40;0.63;;;0.63;;
19780;SDS011;10050;55.492;13.506;2023-02-04T09:28:07;2.00;;;0.70;;
19780;SDS011;10050;55.492;13.506;2023-02-04T09:30:36;1.03;;;0.80;;
19780;SDS011;10050;55.492;13.506;2023-02-04T09:33:02;1.70;;;0.73;;
19780;SDS011;10050;55.492;13.506;2023-02-04T09:35:28;1.03;;;0.80;;
19780;SDS011;10050;55.492;13.506;2023-02-04T09:37:54;0.80;;;0.80;;
19780;SDS011;10050;55.492;13.506;2023-02-04T09:40:20;0.77;;;0.70;;
19780;SDS011;10050;55.492;13.506;2023-02-04T09:42:49;0.70;;;0.70;;
19780;SDS011;10050;55.492;13.506;2023-02-04T09:45:16;0.90;;;0.70;;
19780;SDS011;10050;55.492;13.506;2023-02-04T09:47:47;0.60;;;0.60;;
19780;SDS011;10050;55.492;13.506;2023-02-04T09:50:19;0.70;;;0.70;;
19780;SDS011;10050;55.492;13.506;2023-02-04T09:52:47;0.93;;;0.70;;
19780;SDS011;10050;55.492;13.506;2023-02-04T09:55:15;0.80;;;0.80;;
19780;SDS011;10050;55.492;13.506;2023-02-04T09:57:43;1.03;;;0.83;;
19780;SDS011;10050;55.492;13.506;2023-02-04T10:00:17;0.80;;;0.80;;
19780;SDS011;10050;55.492;13.506;2023-02-04T10:02:45;0.80;;;0.70;;
19780;SDS011;10050;55.492;13.506;2023-02-04T10:05:14;0.50;;;0.50;;
19780;SDS011;10050;55.492;13.506;2023-02-04T10:07:42;0.70;;;0.60;;
19780;SDS011;10050;55.492;13.506;2023-02-04T10:10:13;0.87;;;0.87;;
19780;SDS011;10050;55.492;13.506;2023-02-04T10:12:52;1.60;;;1.10;;
19780;SDS011;10050;55.492;13.506;2023-02-04T10:15:21;1.07;;;0.80;;
19780;SDS011;10050;55.492;13.506;2023-02-04T10:17:50;0.97;;;0.80;;
19780;SDS011;10050;55.492;13.506;2023-02-04T10:20:23;1.83;;;1.63;;
19780;SDS011;10050;55.492;13.506;2023-02-04T10:22:50;1.90;;;1.67;;
19780;SDS011;10050;55.492;13.506;2023-02-04T10:25:19;1.47;;;1.37;;
19780;SDS011;10050;55.492;13.506;2023-02-04T10:27:53;0.93;;;0.87;;
19780;SDS011;10050;55.492;13.506;2023-02-04T10:30:22;0.93;;;0.80;;
19780;SDS011;10050;55.492;13.506;2023-02-04T10:32:52;0.70;;;0.70;;
19780;SDS011;10050;55.492;13.506;2023-02-04T10:35:19;0.97;;;0.60;;
19780;SDS011;10050;55.492;13.506;2023-02-04T10:37:46;2.43;;;0.90;;
19780;SDS011;10050;55.492;13.506;2023-02-04T10:40:24;1.20;;;1.00;;
19780;SDS011;10050;55.492;13.506;2023-02-04T10:42:55;1.13;;;0.87;;
19780;SDS011;10050;55.492;13.506;2023-02-04T10:45:28;1.23;;;0.87;;
19780;SDS011;10050;55.492;13.506;2023-02-04T10:47:55;1.27;;;0.70;;
19780;SDS011;10050;55.492;13.506;2023-02-04T10:50:24;1.13;;;0.90;;
19780;SDS011;10050;55.492;13.506;2023-02-04T10:52:54;1.90;;;1.60;;
19780;SDS011;10050;55.492;13.506;2023-02-04T10:55:42;6.33;;;3.03;;
19780;SDS011;10050;55.492;13.506;2023-02-04T10:58:13;2.17;;;1.50;;
19780;SDS011;10050;55.492;13.506;2023-02-04T11:00:42;1.47;;;1.13;;
19780;SDS011;10050;55.492;13.506;2023-02-04T11:05:56;1.30;;;1.00;;
19780;SDS011;10050;55.492;13.506;2023-02-04T11:08:27;1.10;;;0.93;;
19780;SDS011;10050;55.492;13.506;2023-02-04T11:10:57;1.13;;;1.00;;
19780;SDS011;10050;55.492;13.506;2023-02-04T11:13:26;1.50;;;0.70;;
19780;SDS011;10050;55.492;13.506;2023-02-04T11:18:49;1.37;;;1.10;;
19780;SDS011;10050;55.492;13.506;2023-02-04T11:27:21;1.23;;;1.00;;
19780;SDS011;10050;55.492;13.506;2023-02-04T11:29:32;1.30;;;1.20;;
19780;SDS011;10050;55.492;13.506;2023-02-04T11:34:53;0.77;;;0.70;;
19780;SDS011;10050;55.492;13.506;2023-02-04T11:37:50;1.03;;;1.03;;
19780;SDS011;10050;55.492;13.506;2023-02-04T11:40:19;1.50;;;1.00;;
19780;SDS011;10050;55.492;13.506;2023-02-04T11:42:49;0.60;;;0.60;;
19780;SDS011;10050;55.492;13.506;2023-02-04T11:45:28;0.73;;;0.70;;
19780;SDS011;10050;55.492;13.506;2023-02-04T11:47:59;1.13;;;1.03;;
19780;SDS011;10050;55.492;13.506;2023-02-04T11:50:35;2.43;;;1.03;;
19780;SDS011;10050;55.492;13.506;2023-02-04T11:53:05;2.07;;;0.90;;
19780;SDS011;10050;55.492;13.506;2023-02-04T11:55:34;1.33;;;0.93;;
19780;SDS011;10050;55.492;13.506;2023-02-04T11:58:01;1.37;;;1.00;;
19780;SDS011;10050;55.492;13.506;2023-02-04T12:00:29;0.83;;;0.80;;
19780;SDS011;10050;55.492;13.506;2023-02-04T12:03:16;1.20;;;0.70;;
19780;SDS011;10050;55.492;13.506;2023-02-04T12:05:53;1.30;;;0.87;;
19780;SDS011;10050;55.492;13.506;2023-02-04T12:10:49;1.30;;;0.80;;
19780;SDS011;10050;55.492;13.506;2023-02-04T12:13:27;1.90;;;0.73;;
19780;SDS011;10050;55.492;13.506;2023-02-04T12:18:27;1.17;;;0.70;;
19780;SDS011;10050;55.492;13.506;2023-02-04T12:20:55;1.20;;;1.00;;
19780;SDS011;10050;55.492;13.506;2023-02-04T12:23:21;3.13;;;0.90;;
19780;SDS011;10050;55.492;13.506;2023-02-04T12:25:48;1.67;;;0.63;;
19780;SDS011;10050;55.492;13.506;2023-02-04T12:28:14;1.90;;;0.83;;
19780;SDS011;10050;55.492;13.506;2023-02-04T12:30:40;3.07;;;1.30;;
19780;SDS011;10050;55.492;13.506;2023-02-04T12:33:05;1.53;;;1.10;;
19780;SDS011;10050;55.492;13.506;2023-02-04T12:35:32;1.63;;;1.20;;
19780;SDS011;10050;55.492;13.506;2023-02-04T12:37:58;1.20;;;1.17;;
19780;SDS011;10050;55.492;13.506;2023-02-04T12:40:23;2.90;;;0.90;;
19780;SDS011;10050;55.492;13.506;2023-02-04T12:42:49;0.77;;;0.70;;
19780;SDS011;10050;55.492;13.506;2023-02-04T12:45:15;0.87;;;0.87;;
19780;SDS011;10050;55.492;13.506;2023-02-04T12:47:41;0.87;;;0.77;;
19780;SDS011;10050;55.492;13.506;2023-02-04T12:50:08;0.90;;;0.80;;
19780;SDS011;10050;55.492;13.506;2023-02-04T12:52:36;0.80;;;0.80;;
19780;SDS011;10050;55.492;13.506;2023-02-04T12:55:03;2.43;;;0.80;;
19780;SDS011;10050;55.492;13.506;2023-02-04T12:57:30;2.03;;;0.87;;
19780;SDS011;10050;55.492;13.506;2023-02-04T12:59:57;1.03;;;0.90;;
19780;SDS011;10050;55.492;13.506;2023-02-04T13:02:25;1.30;;;0.80;;
19780;SDS011;10050;55.492;13.506;2023-02-04T13:04:52;1.03;;;0.80;;
19780;SDS011;10050;55.492;13.506;2023-02-04T13:07:17;2.47;;;0.83;;
19780;SDS011;10050;55.492;13.506;2023-02-04T13:09:43;1.40;;;0.87;;
19780;SDS011;10050;55.492;13.506;2023-02-04T13:12:09;2.67;;;0.90;;
19780;SDS011;10050;55.492;13.506;2023-02-04T13:14:37;0.80;;;0.80;;
19780;SDS011;10050;55.492;13.506;2023-02-04T13:17:04;1.53;;;0.93;;
19780;SDS011;10050;55.492;13.506;2023-02-04T13:19:30;2.13;;;1.00;;
19780;SDS011;10050;55.492;13.506;2023-02-04T13:21:56;1.90;;;0.90;;
19780;SDS011;10050;55.492;13.506;2023-02-04T13:24:22;3.80;;;0.97;;
19780;SDS011;10050;55.492;13.506;2023-02-04T13:26:48;0.63;;;0.63;;
19780;SDS011;10050;55.492;13.506;2023-02-04T13:29:14;1.73;;;0.70;;
19780;SDS011;10050;55.492;13.506;2023-02-04T13:31:40;0.80;;;0.80;;
19780;SDS011;10050;55.492;13.506;2023-02-04T13:34:05;1.33;;;1.03;;
19780;SDS011;10050;55.492;13.506;2023-02-04T13:36:31;0.80;;;0.80;;
19780;SDS011;10050;55.492;13.506;2023-02-04T13:38:57;0.80;;;0.70;;
19780;SDS011;10050;55.492;13.506;2023-02-04T13:41:24;0.50;;;0.50;;
19780;SDS011;10050;55.492;13.506;2023-02-04T13:43:50;0.80;;;0.80;;
19780;SDS011;10050;55.492;13.506;2023-02-04T13:46:16;5.13;;;1.00;;
19780;SDS011;10050;55.492;13.506;2023-02-04T13:48:41;1.37;;;0.80;;
19780;SDS011;10050;55.492;13.506;2023-02-04T13:51:07;2.73;;;0.70;;
19780;SDS011;10050;55.492;13.506;2023-02-04T13:53:32;0.87;;;0.87;;
19780;SDS011;10050;55.492;13.506;2023-02-04T13:55:58;1.13;;;0.97;;
19780;SDS011;10050;55.492;13.506;2023-02-04T13:58:25;6.00;;;2.47;;
19780;SDS011;10050;55.492;13.506;2023-02-04T14:00:51;2.03;;;1.37;;
19780;SDS011;10050;55.492;13.506;2023-02-04T14:03:21;2.30;;;1.17;;
19780;SDS011;10050;55.492;13.506;2023-02-04T14:05:50;1.67;;;1.03;;
19780;SDS011;10050;55.492;13.506;2023-02-04T14:08:17;3.13;;;1.17;;
19780;SDS011;10050;55.492;13.506;2023-02-04T14:10:43;3.57;;;1.70;;
19780;SDS011;10050;55.492;13.506;2023-02-04T14:13:11;2.00;;;0.83;;
19780;SDS011;10050;55.492;13.506;2023-02-04T14:15:37;2.20;;;1.07;;
19780;SDS011;10050;55.492;13.506;2023-02-04T14:18:04;0.93;;;0.93;;
19780;SDS011;10050;55.492;13.506;2023-02-04T14:20:30;2.07;;;1.07;;
19780;SDS011;10050;55.492;13.506;2023-02-04T14:22:56;1.57;;;0.80;;
19780;SDS011;10050;55.492;13.506;2023-02-04T14:25:21;1.80;;;0.97;;
19780;SDS011;10050;55.492;13.506;2023-02-04T14:27:47;1.50;;;0.93;;
19780;SDS011;10050;55.492;13.506;2023-02-04T14:32:42;3.70;;;0.97;;
19780;SDS011;10050;55.492;13.506;2023-02-04T14:35:07;1.75;;;1.10;;
19780;SDS011;10050;55.492;13.506;2023-02-04T14:37:33;1.03;;;0.97;;
19780;SDS011;10050;55.492;13.506;2023-02-04T14:39:58;0.90;;;0.90;;
19780;SDS011;10050;55.492;13.506;2023-02-04T14:42:24;1.03;;;0.80;;
19780;SDS011;10050;55.492;13.506;2023-02-04T14:44:50;1.63;;;1.07;;
19780;SDS011;10050;55.492;13.506;2023-02-04T14:47:15;1.20;;;1.10;;
19780;SDS011;10050;55.492;13.506;2023-02-04T14:49:41;0.80;;;0.80;;
19780;SDS011;10050;55.492;13.506;2023-02-04T14:52:07;1.00;;;0.90;;
19780;SDS011;10050;55.492;13.506;2023-02-04T14:54:33;0.90;;;0.90;;
19780;SDS011;10050;55.492;13.506;2023-02-04T14:56:58;2.57;;;1.10;;